createdAt,value
2022-10-14T00:06:26.855Z,81.0
2022-10-14T00:20:26.943Z,83.0
2022-10-14T00:34:28.608Z,85.0
2022-10-14T00:48:26.867Z,86.0
2022-10-14T01:02:26.897Z,87.0
2022-10-14T01:16:26.888Z,90.0
2022-10-14T01:30:26.910Z,91.0
2022-10-14T01:44:26.916Z,89.0
2022-10-14T01:58:26.917Z,87.0
2022-10-14T02:12:27.093Z,88.0
2022-10-14T02:26:27.185Z,89.0
2022-10-14T02:40:27.189Z,91.0
2022-10-14T02:54:27.206Z,92.0
2022-10-14T03:08:27.222Z,93.0
2022-10-14T03:22:27.251Z,93.0
2022-10-14T03:36:27.246Z,94.0
2022-10-14T03:50:27.243Z,94.0
2022-10-14T04:04:27.534Z,94.0
2022-10-14T04:18:27.617Z,94.0
2022-10-14T04:32:27.954Z,94.0
2022-10-14T04:46:27.969Z,94.0
2022-10-14T05:00:27.943Z,94.0
2022-10-14T05:14:27.958Z,94.0
2022-10-14T05:29:28.047Z,94.0
2022-10-14T05:44:28.194Z,95.0
2022-10-14T05:59:28.187Z,95.0
2022-10-14T06:14:28.188Z,95.0
2022-10-14T06:29:28.235Z,96.0
2022-10-14T06:44:28.206Z,94.0
2022-10-14T06:59:28.220Z,91.0
2022-10-14T07:14:28.228Z,87.0
2022-10-14T07:29:28.309Z,77.0
2022-10-14T07:44:28.692Z,67.0
2022-10-14T07:59:28.746Z,65.0
2022-10-14T08:14:28.759Z,60.0
2022-10-14T08:29:28.761Z,59.0
2022-10-14T08:44:28.772Z,55.0
2022-10-14T08:59:28.809Z,57.0
2022-10-14T09:15:28.793Z,56.0
2022-10-14T09:30:28.771Z,56.0
2022-10-14T09:45:28.788Z,55.0
2022-10-14T10:00:28.831Z,57.0
2022-10-14T10:15:28.832Z,60.0
2022-10-14T10:30:28.917Z,60.0
2022-10-14T10:45:31.581Z,59.0
2022-10-14T10:51:14.295Z,59.0
2022-10-14T11:06:14.332Z,58.0
2022-10-14T11:21:14.375Z,56.0
2022-10-14T11:36:14.333Z,54.0
2022-10-14T11:51:14.362Z,55.0
2022-10-14T12:06:14.457Z,53.0
2022-10-14T12:21:14.438Z,52.0
2022-10-14T12:36:14.541Z,52.0
2022-10-14T12:52:16.988Z,50.0
2022-10-14T13:07:28.339Z,53.0
2022-10-14T13:22:14.665Z,51.0
2022-10-14T13:37:16.092Z,52.0
2022-10-14T13:52:15.768Z,53.0
2022-10-14T14:07:38.135Z,57.0
2022-10-14T14:22:16.245Z,54.0
2022-10-14T14:37:37.035Z,54.0
2022-10-14T14:52:16.938Z,55.0
2022-10-14T15:07:18.767Z,59.0
2022-10-14T15:23:15.028Z,68.0
2022-10-14T15:38:16.258Z,70.0
2022-10-14T15:53:15.112Z,74.0
2022-10-14T16:08:15.100Z,76.0
2022-10-14T16:23:15.320Z,79.0
2022-10-14T16:38:15.433Z,82.0
2022-10-14T16:53:15.470Z,83.0
2022-10-14T17:08:15.599Z,84.0
2022-10-14T17:22:15.587Z,85.0
2022-10-14T17:36:15.613Z,81.0
2022-10-14T17:50:15.615Z,79.0
2022-10-14T18:04:15.671Z,84.0
2022-10-14T18:18:15.756Z,86.0
2022-10-14T18:32:15.741Z,88.0
2022-10-14T18:46:15.828Z,89.0
2022-10-14T19:00:15.850Z,90.0
2022-10-14T19:14:15.895Z,90.0
2022-10-14T19:28:15.894Z,90.0
2022-10-14T19:42:15.911Z,90.0
2022-10-14T19:56:15.917Z,89.0
2022-10-14T20:10:15.928Z,90.0
2022-10-14T20:24:15.928Z,89.0
2022-10-14T20:38:15.943Z,89.0
2022-10-14T20:52:15.975Z,89.0
2022-10-14T21:06:15.953Z,90.0
2022-10-14T21:20:15.959Z,90.0
2022-10-14T21:34:16.003Z,90.0
2022-10-14T21:48:16.026Z,90.0
2022-10-14T22:02:15.981Z,90.0
2022-10-14T22:16:15.985Z,90.0
2022-10-14T22:30:15.991Z,89.0
2022-10-14T22:44:15.987Z,90.0
2022-10-14T22:58:16.018Z,90.0
2022-10-14T23:12:15.975Z,89.0
2022-10-14T23:26:16.015Z,89.0
2022-10-14T23:40:15.973Z,90.0
2022-10-14T23:54:16.025Z,89.0
